• Join FlightAware (Why Join?)
  • Login
  • US Flag 
07:52PM EDT


 

Airport Tracker/Info


-or-


 

Live Flight TrackerFlight Track Log ✈ ASH3732 ✈ 02-Jul-2013 ✈ KORD - KDTW

Flight Track Log - Related Links

Times and Time Zones

All times are in EDT time to prevent confusion due to time zone crossing. See the ASH3732 flight status page for this flight to view local times or setup timezone preferences in your user account.

Time Position Orientation Groundspeed Altitude Reporting Facility
EDT Latitude Longitude Course Direction KTS MPH feet Rate Location/Type
11:39PM 42.0000 -87.9333 14° North 161 185 1,400  Level Chicago TRACON
11:40PM 42.0333 -87.9833 312° West 218 251 3,100 1,680 Climbing Chicago TRACON
11:41PM 42.0833 -88.0500 315° West 278 320 4,800 660 Climbing Chicago TRACON
11:42PM 42.3809 -87.7679 20° North  Level FlightAware Approximate
11:42PM 42.1792 -88.1314 328° Northwest 277 319 5,000  Level Chicago Center
11:43PM 42.4847 -87.7364 North  Level FlightAware Approximate
11:43PM 42.2536 -88.1425 354° North 274 315 5,500  Level Chicago Center
11:44PM 42.5893 -87.7092 14° North  Level FlightAware Approximate
11:44PM 42.3322 -88.1544 354° North 277 319 8,600  Level Chicago Center
11:45PM 42.4133 -88.1631 356° North 288 331 11,300 2,700 Climbing Chicago Center
11:46PM 42.5139 -88.1617 North 319 367 14,100 1,920 Climbing Chicago Center
11:47PM 42.5633 -88.0506 59° Northeast 363 418 15,300 1,440 Climbing Chicago Center
11:48PM 42.6050 -87.9175 67° East 383 441 17,100 1,620 Climbing Chicago Center
11:49PM 42.6486 -87.7764 67° East 404 465 18,700 1,620 Climbing Chicago Center
11:50PM 42.6931 -87.6325 67° East 415 478 20,400 1,560 Climbing Chicago Center
11:51PM 42.7386 -87.4839 67° East 427 491 21,900 1,260 Climbing Chicago Center
11:52PM 42.7828 -87.3378 68° East 434 499 23,000 540 Climbing Chicago Center
11:53PM 42.8225 -87.1686 72° East 469 540 23,000  Level Chicago Center
11:54PM 42.8253 -86.9889 89° East 480 552 23,000  Level Chicago Center
11:55PM 42.8303 -86.8092 88° East 477 549 23,000  Level Chicago Center
11:56PM 42.8325 -86.6297 89° East 475 547 23,000  Level Chicago Center
11:57PM 42.8350 -86.4472 89° East 484 557 23,000  Level Chicago Center
11:58PM 42.8375 -86.2647 89° East 486 559 23,000  Level Chicago Center
12:00AM 42.8381 -86.0469 90° East 489 563 23,000  Level Chicago Center
12:01AM 42.8411 -85.8664 89° East 488 562 23,000  Level Chicago Center
12:02AM 42.8422 -85.6842 89° East 489 563 23,000  Level Chicago Center
12:03AM 42.8433 -85.5000 89° East 490 564 23,000  Level Chicago Center
12:04AM 42.8442 -85.3153 90° East 491 565 23,000  Level Chicago Center
12:05AM 42.8453 -85.1294 89° East 493 567 23,000  Level Chicago Center
12:06AM 42.8447 -84.9442 90° East 492 566 23,000  Level Chicago Center
12:07AM 42.8447 -84.7592 90° East 492 566 23,000 -360 Level Chicago Center
12:08AM 42.8453 -84.5728 90° East 494 568 22,300 -1,020 Descending Chicago Center
12:09AM 42.8278 -84.4072 98° East 450 518 21,000 -1,620 Descending Chicago Center
12:09AM 42.7747 -84.3172 129° Southeast 358 412 19,700 -1,980 Descending Cleveland Center
12:10AM 42.7158 -84.2092 127° Southeast 346 398 17,800 -2,100 Descending Cleveland Center
12:11AM 42.6561 -84.1153 131° Southeast 341 392 15,500 -2,160 Descending Cleveland Center
12:12AM 42.5833 -84.0406 143° Southeast 318 366 13,500 -2,100 Descending Cleveland Center
12:13AM 42.5144 -83.9719 144° Southeast 305 351 11,300 -1,200 Descending Cleveland Center
12:14AM 42.4519 -83.9011 140° Southeast 305 351 11,100 -900 Descending Cleveland Center
12:15AM 42.3850 -83.8331 143° Southeast 274 315 9,600 -1,740 Descending Cleveland Center
12:16AM 42.3242 -83.7736 144° Southeast 267 307 7,700 -1,620 Descending Cleveland Center
12:17AM 42.2675 -83.7147 142° Southeast 253 291 6,400 -1,320 Descending Cleveland Center
12:18AM 42.2228 -83.6706 144° Southeast 192 221 5,100 -840 Descending Cleveland Center
12:19AM 42.1711 -83.6511 164° South 185 213 4,700 -840 Descending Cleveland Center
12:20AM 42.1283 -83.6125 146° Southeast 190 219 3,500 -840 Descending Cleveland Center
12:21AM 42.0944 -83.5522 127° Southeast 185 213 3,100 -240 Descending Cleveland Center
12:22AM 42.0669 -83.4950 123° Southeast 169 194 3,100 -60 Level Cleveland Center
12:23AM 42.0989 -83.4600 39° Northeast 156 180 3,000 -480 Descending Cleveland Center
12:24AM 42.1350 -83.4364 26° Northeast 142 163 2,200 -840 Descending Cleveland Center